sensor_id;sensor_type;location;lat;lon;timestamp;P1;P2;P0
47741;PMS5003;33504;52.066;6.096;2023-03-01T00:00:03;35;34;
47741;PMS5003;33504;52.066;6.096;2023-03-01T00:02:31;37;35;
47741;PMS5003;33504;52.066;6.096;2023-03-01T00:04:58;26;26;
47741;PMS5003;33504;52.066;6.096;2023-03-01T00:07:25;32;31;
47741;PMS5003;33504;52.066;6.096;2023-03-01T00:09:52;31;28;
47741;PMS5003;33504;52.066;6.096;2023-03-01T00:12:20;31;30;
47741;PMS5003;33504;52.066;6.096;2023-03-01T00:14:47;27;27;
47741;PMS5003;33504;52.066;6.096;2023-03-01T00:17:13;30;29;
47741;PMS5003;33504;52.066;6.096;2023-03-01T00:19:40;31;29;
47741;PMS5003;33504;52.066;6.096;2023-03-01T00:22:07;30;29;
47741;PMS5003;33504;52.066;6.096;2023-03-01T00:24:34;33;31;
47741;PMS5003;33504;52.066;6.096;2023-03-01T00:27:02;27;26;
47741;PMS5003;33504;52.066;6.096;2023-03-01T00:29:29;33;33;
47741;PMS5003;33504;52.066;6.096;2023-03-01T00:31:56;31;30;
47741;PMS5003;33504;52.066;6.096;2023-03-01T00:34:22;31;30;
47741;PMS5003;33504;52.066;6.096;2023-03-01T00:36:50;40;37;
47741;PMS5003;33504;52.066;6.096;2023-03-01T00:39:17;40;39;
47741;PMS5003;33504;52.066;6.096;2023-03-01T00:41:44;42;39;
47741;PMS5003;33504;52.066;6.096;2023-03-01T00:44:11;47;44;
47741;PMS5003;33504;52.066;6.096;2023-03-01T00:46:38;46;44;
47741;PMS5003;33504;52.066;6.096;2023-03-01T00:49:05;49;47;
47741;PMS5003;33504;52.066;6.096;2023-03-01T00:51:33;42;40;
47741;PMS5003;33504;52.066;6.096;2023-03-01T00:54:01;45;42;
47741;PMS5003;33504;52.066;6.096;2023-03-01T00:56:29;46;42;
47741;PMS5003;33504;52.066;6.096;2023-03-01T00:58:57;46;45;
47741;PMS5003;33504;52.066;6.096;2023-03-01T01:01:25;40;40;
47741;PMS5003;33504;52.066;6.096;2023-03-01T01:03:54;48;46;
47741;PMS5003;33504;52.066;6.096;2023-03-01T01:06:23;47;43;
47741;PMS5003;33504;52.066;6.096;2023-03-01T01:08:52;47;46;
47741;PMS5003;33504;52.066;6.096;2023-03-01T01:11:20;44;42;
47741;PMS5003;33504;52.066;6.096;2023-03-01T01:13:48;50;47;
47741;PMS5003;33504;52.066;6.096;2023-03-01T01:16:16;44;43;
47741;PMS5003;33504;52.066;6.096;2023-03-01T01:18:44;52;51;
47741;PMS5003;33504;52.066;6.096;2023-03-01T01:21:12;54;49;
47741;PMS5003;33504;52.066;6.096;2023-03-01T01:23:42;49;47;
47741;PMS5003;33504;52.066;6.096;2023-03-01T01:26:11;49;46;
47741;PMS5003;33504;52.066;6.096;2023-03-01T01:28:39;51;49;
47741;PMS5003;33504;52.066;6.096;2023-03-01T01:31:06;51;48;
47741;PMS5003;33504;52.066;6.096;2023-03-01T01:33:35;48;43;
47741;PMS5003;33504;52.066;6.096;2023-03-01T01:36:03;42;39;
47741;PMS5003;33504;52.066;6.096;2023-03-01T01:38:30;42;42;
47741;PMS5003;33504;52.066;6.096;2023-03-01T01:40:58;45;45;
47741;PMS5003;33504;52.066;6.096;2023-03-01T01:43:26;45;43;
47741;PMS5003;33504;52.066;6.096;2023-03-01T01:45:55;53;48;
47741;PMS5003;33504;52.066;6.096;2023-03-01T01:48:27;44;40;
47741;PMS5003;33504;52.066;6.096;2023-03-01T01:51:00;55;50;
47741;PMS5003;33504;52.066;6.096;2023-03-01T01:53:27;49;46;
47741;PMS5003;33504;52.066;6.096;2023-03-01T01:55:55;57;52;
47741;PMS5003;33504;52.066;6.096;2023-03-01T01:58:25;47;45;
47741;PMS5003;33504;52.066;6.096;2023-03-01T02:00:56;47;44;
47741;PMS5003;33504;52.066;6.096;2023-03-01T02:03:24;48;45;
47741;PMS5003;33504;52.066;6.096;2023-03-01T02:05:57;45;43;
47741;PMS5003;33504;52.066;6.096;2023-03-01T02:08:30;44;40;
47741;PMS5003;33504;52.066;6.096;2023-03-01T02:11:02;52;48;
47741;PMS5003;33504;52.066;6.096;2023-03-01T02:13:29;47;45;
47741;PMS5003;33504;52.066;6.096;2023-03-01T02:15:59;45;42;
47741;PMS5003;33504;52.066;6.096;2023-03-01T02:18:28;45;42;
47741;PMS5003;33504;52.066;6.096;2023-03-01T02:21:00;41;37;
47741;PMS5003;33504;52.066;6.096;2023-03-01T02:23:41;43;39;
47741;PMS5003;33504;52.066;6.096;2023-03-01T02:26:10;44;44;
47741;PMS5003;33504;52.066;6.096;2023-03-01T02:28:43;44;42;
47741;PMS5003;33504;52.066;6.096;2023-03-01T02:31:14;42;39;
47741;PMS5003;33504;52.066;6.096;2023-03-01T02:33:43;45;42;
47741;PMS5003;33504;52.066;6.096;2023-03-01T02:36:14;49;47;
47741;PMS5003;33504;52.066;6.096;2023-03-01T02:38:43;49;47;
47741;PMS5003;33504;52.066;6.096;2023-03-01T02:41:11;43;42;
47741;PMS5003;33504;52.066;6.096;2023-03-01T02:43:41;44;41;
47741;PMS5003;33504;52.066;6.096;2023-03-01T02:46:15;39;38;
47741;PMS5003;33504;52.066;6.096;2023-03-01T02:48:45;38;36;
47741;PMS5003;33504;52.066;6.096;2023-03-01T02:51:18;39;38;
47741;PMS5003;33504;52.066;6.096;2023-03-01T02:53:58;38;37;
47741;PMS5003;33504;52.066;6.096;2023-03-01T02:56:34;40;37;
47741;PMS5003;33504;52.066;6.096;2023-03-01T02:59:02;45;42;
47741;PMS5003;33504;52.066;6.096;2023-03-01T03:01:30;43;39;
47741;PMS5003;33504;52.066;6.096;2023-03-01T03:03:57;44;43;
47741;PMS5003;33504;52.066;6.096;2023-03-01T03:06:26;37;36;
47741;PMS5003;33504;52.066;6.096;2023-03-01T03:08:53;40;37;
47741;PMS5003;33504;52.066;6.096;2023-03-01T03:11:19;43;42;
47741;PMS5003;33504;52.066;6.096;2023-03-01T03:13:47;39;37;
47741;PMS5003;33504;52.066;6.096;2023-03-01T03:16:14;36;35;
47741;PMS5003;33504;52.066;6.096;2023-03-01T03:18:41;43;40;
47741;PMS5003;33504;52.066;6.096;2023-03-01T03:21:08;48;43;
47741;PMS5003;33504;52.066;6.096;2023-03-01T03:23:36;36;36;
47741;PMS5003;33504;52.066;6.096;2023-03-01T03:26:03;37;36;
47741;PMS5003;33504;52.066;6.096;2023-03-01T03:28:32;36;35;
47741;PMS5003;33504;52.066;6.096;2023-03-01T03:31:00;35;35;
47741;PMS5003;33504;52.066;6.096;2023-03-01T03:33:27;40;39;
47741;PMS5003;33504;52.066;6.096;2023-03-01T03:35:54;39;38;
47741;PMS5003;33504;52.066;6.096;2023-03-01T03:38:21;40;38;
47741;PMS5003;33504;52.066;6.096;2023-03-01T03:40:49;36;34;
47741;PMS5003;33504;52.066;6.096;2023-03-01T03:43:19;36;34;
47741;PMS5003;33504;52.066;6.096;2023-03-01T03:45:48;40;38;
47741;PMS5003;33504;52.066;6.096;2023-03-01T03:48:16;42;40;
47741;PMS5003;33504;52.066;6.096;2023-03-01T03:50:47;42;38;
47741;PMS5003;33504;52.066;6.096;2023-03-01T03:53:15;38;36;
47741;PMS5003;33504;52.066;6.096;2023-03-01T03:55:43;38;35;
47741;PMS5003;33504;52.066;6.096;2023-03-01T03:58:11;41;36;
47741;PMS5003;33504;52.066;6.096;2023-03-01T04:00:38;35;34;
47741;PMS5003;33504;52.066;6.096;2023-03-01T04:03:08;36;34;
47741;PMS5003;33504;52.066;6.096;2023-03-01T04:05:36;42;39;
47741;PMS5003;33504;52.066;6.096;2023-03-01T04:08:05;33;32;
47741;PMS5003;33504;52.066;6.096;2023-03-01T04:10:33;35;35;
47741;PMS5003;33504;52.066;6.096;2023-03-01T04:13:03;39;34;
47741;PMS5003;33504;52.066;6.096;2023-03-01T04:15:30;47;41;
47741;PMS5003;33504;52.066;6.096;2023-03-01T04:17:57;35;34;
47741;PMS5003;33504;52.066;6.096;2023-03-01T04:20:26;40;39;
47741;PMS5003;33504;52.066;6.096;2023-03-01T04:22:56;41;37;
47741;PMS5003;33504;52.066;6.096;2023-03-01T04:25:25;52;49;
47741;PMS5003;33504;52.066;6.096;2023-03-01T04:27:52;60;58;
47741;PMS5003;33504;52.066;6.096;2023-03-01T04:30:19;44;43;
47741;PMS5003;33504;52.066;6.096;2023-03-01T04:32:46;52;50;
47741;PMS5003;33504;52.066;6.096;2023-03-01T04:35:14;40;39;
47741;PMS5003;33504;52.066;6.096;2023-03-01T04:37:40;42;39;
47741;PMS5003;33504;52.066;6.096;2023-03-01T04:40:08;40;39;
47741;PMS5003;33504;52.066;6.096;2023-03-01T04:42:36;49;47;
47741;PMS5003;33504;52.066;6.096;2023-03-01T04:45:03;43;41;
47741;PMS5003;33504;52.066;6.096;2023-03-01T04:47:31;43;40;
47741;PMS5003;33504;52.066;6.096;2023-03-01T04:49:58;42;40;
47741;PMS5003;33504;52.066;6.096;2023-03-01T04:52:26;42;41;
47741;PMS5003;33504;52.066;6.096;2023-03-01T04:54:52;41;39;
47741;PMS5003;33504;52.066;6.096;2023-03-01T04:57:20;43;41;
47741;PMS5003;33504;52.066;6.096;2023-03-01T04:59:47;72;70;
47741;PMS5003;33504;52.066;6.096;2023-03-01T05:02:14;40;38;
47741;PMS5003;33504;52.066;6.096;2023-03-01T05:04:41;40;40;
47741;PMS5003;33504;52.066;6.096;2023-03-01T05:07:09;49;47;
47741;PMS5003;33504;52.066;6.096;2023-03-01T05:09:36;47;45;
47741;PMS5003;33504;52.066;6.096;2023-03-01T05:12:04;49;48;
47741;PMS5003;33504;52.066;6.096;2023-03-01T05:14:31;43;41;
47741;PMS5003;33504;52.066;6.096;2023-03-01T05:16:58;49;47;
47741;PMS5003;33504;52.066;6.096;2023-03-01T05:19:25;55;54;
47741;PMS5003;33504;52.066;6.096;2023-03-01T05:21:52;49;47;
47741;PMS5003;33504;52.066;6.096;2023-03-01T05:24:19;53;52;
47741;PMS5003;33504;52.066;6.096;2023-03-01T05:26:47;57;55;
47741;PMS5003;33504;52.066;6.096;2023-03-01T05:29:14;59;59;
47741;PMS5003;33504;52.066;6.096;2023-03-01T05:31:41;73;73;
47741;PMS5003;33504;52.066;6.096;2023-03-01T05:34:08;48;47;
47741;PMS5003;33504;52.066;6.096;2023-03-01T05:36:35;63;63;
47741;PMS5003;33504;52.066;6.096;2023-03-01T05:39:03;62;59;
47741;PMS5003;33504;52.066;6.096;2023-03-01T05:41:30;40;39;
47741;PMS5003;33504;52.066;6.096;2023-03-01T05:43:57;54;54;
47741;PMS5003;33504;52.066;6.096;2023-03-01T05:46:24;57;56;
47741;PMS5003;33504;52.066;6.096;2023-03-01T05:48:51;63;63;
47741;PMS5003;33504;52.066;6.096;2023-03-01T05:51:18;71;69;
47741;PMS5003;33504;52.066;6.096;2023-03-01T05:53:45;56;55;
47741;PMS5003;33504;52.066;6.096;2023-03-01T05:56:12;49;45;
47741;PMS5003;33504;52.066;6.096;2023-03-01T05:58:39;54;51;
47741;PMS5003;33504;52.066;6.096;2023-03-01T06:01:10;54;52;
47741;PMS5003;33504;52.066;6.096;2023-03-01T06:03:38;54;52;
47741;PMS5003;33504;52.066;6.096;2023-03-01T06:06:06;51;48;
47741;PMS5003;33504;52.066;6.096;2023-03-01T06:08:33;52;49;
47741;PMS5003;33504;52.066;6.096;2023-03-01T06:11:00;57;55;
47741;PMS5003;33504;52.066;6.096;2023-03-01T06:13:27;59;58;
47741;PMS5003;33504;52.066;6.096;2023-03-01T06:15:54;49;48;
47741;PMS5003;33504;52.066;6.096;2023-03-01T06:18:21;57;55;
47741;PMS5003;33504;52.066;6.096;2023-03-01T06:20:52;59;58;
47741;PMS5003;33504;52.066;6.096;2023-03-01T06:23:19;52;51;
47741;PMS5003;33504;52.066;6.096;2023-03-01T06:25:46;58;56;
47741;PMS5003;33504;52.066;6.096;2023-03-01T06:28:13;51;48;
47741;PMS5003;33504;52.066;6.096;2023-03-01T06:30:40;69;69;
47741;PMS5003;33504;52.066;6.096;2023-03-01T06:33:09;54;52;
47741;PMS5003;33504;52.066;6.096;2023-03-01T06:35:36;63;60;
47741;PMS5003;33504;52.066;6.096;2023-03-01T06:38:03;64;62;
47741;PMS5003;33504;52.066;6.096;2023-03-01T06:40:32;52;51;
47741;PMS5003;33504;52.066;6.096;2023-03-01T06:42:59;60;58;
47741;PMS5003;33504;52.066;6.096;2023-03-01T06:45:26;66;64;
47741;PMS5003;33504;52.066;6.096;2023-03-01T06:48:00;62;58;
47741;PMS5003;33504;52.066;6.096;2023-03-01T06:50:28;60;58;
47741;PMS5003;33504;52.066;6.096;2023-03-01T06:52:55;68;66;
47741;PMS5003;33504;52.066;6.096;2023-03-01T06:55:22;54;53;
47741;PMS5003;33504;52.066;6.096;2023-03-01T06:57:53;60;56;
47741;PMS5003;33504;52.066;6.096;2023-03-01T07:00:21;43;42;
47741;PMS5003;33504;52.066;6.096;2023-03-01T07:02:48;60;58;
47741;PMS5003;33504;52.066;6.096;2023-03-01T07:05:16;65;63;
47741;PMS5003;33504;52.066;6.096;2023-03-01T07:07:43;54;52;
47741;PMS5003;33504;52.066;6.096;2023-03-01T07:10:11;50;49;
47741;PMS5003;33504;52.066;6.096;2023-03-01T07:12:38;57;54;
47741;PMS5003;33504;52.066;6.096;2023-03-01T07:15:06;53;49;
47741;PMS5003;33504;52.066;6.096;2023-03-01T07:17:35;43;41;
47741;PMS5003;33504;52.066;6.096;2023-03-01T07:20:03;47;45;
47741;PMS5003;33504;52.066;6.096;2023-03-01T07:22:31;45;41;
47741;PMS5003;33504;52.066;6.096;2023-03-01T07:24:58;53;51;
47741;PMS5003;33504;52.066;6.096;2023-03-01T07:27:25;51;45;
47741;PMS5003;33504;52.066;6.096;2023-03-01T07:29:52;37;36;
47741;PMS5003;33504;52.066;6.096;2023-03-01T07:32:20;43;42;
47741;PMS5003;33504;52.066;6.096;2023-03-01T07:34:46;33;33;
47741;PMS5003;33504;52.066;6.096;2023-03-01T07:37:13;40;38;
47741;PMS5003;33504;52.066;6.096;2023-03-01T07:39:40;42;37;
47741;PMS5003;33504;52.066;6.096;2023-03-01T07:42:08;46;41;
47741;PMS5003;33504;52.066;6.096;2023-03-01T07:44:34;43;41;
47741;PMS5003;33504;52.066;6.096;2023-03-01T07:47:02;37;36;
47741;PMS5003;33504;52.066;6.096;2023-03-01T07:49:30;43;38;
47741;PMS5003;33504;52.066;6.096;2023-03-01T07:51:57;49;46;
47741;PMS5003;33504;52.066;6.096;2023-03-01T07:54:24;50;43;
47741;PMS5003;33504;52.066;6.096;2023-03-01T07:56:51;39;36;
47741;PMS5003;33504;52.066;6.096;2023-03-01T07:59:19;38;37;
47741;PMS5003;33504;52.066;6.096;2023-03-01T08:01:46;37;36;
47741;PMS5003;33504;52.066;6.096;2023-03-01T08:04:13;43;41;
47741;PMS5003;33504;52.066;6.096;2023-03-01T08:06:40;40;39;
47741;PMS5003;33504;52.066;6.096;2023-03-01T08:09:07;41;39;
47741;PMS5003;33504;52.066;6.096;2023-03-01T08:11:34;33;33;
47741;PMS5003;33504;52.066;6.096;2023-03-01T08:14:01;40;38;
47741;PMS5003;33504;52.066;6.096;2023-03-01T08:16:28;34;33;
47741;PMS5003;33504;52.066;6.096;2023-03-01T08:18:55;37;35;
47741;PMS5003;33504;52.066;6.096;2023-03-01T08:21:23;34;34;
47741;PMS5003;33504;52.066;6.096;2023-03-01T08:23:50;33;32;
47741;PMS5003;33504;52.066;6.096;2023-03-01T08:26:19;30;30;
47741;PMS5003;33504;52.066;6.096;2023-03-01T08:28:47;29;29;
47741;PMS5003;33504;52.066;6.096;2023-03-01T08:31:16;30;29;
47741;PMS5003;33504;52.066;6.096;2023-03-01T08:33:46;30;28;
47741;PMS5003;33504;52.066;6.096;2023-03-01T08:36:21;30;30;
47741;PMS5003;33504;52.066;6.096;2023-03-01T08:38:49;35;34;
47741;PMS5003;33504;52.066;6.096;2023-03-01T08:41:17;31;30;
47741;PMS5003;33504;52.066;6.096;2023-03-01T08:43:44;28;27;
47741;PMS5003;33504;52.066;6.096;2023-03-01T08:46:12;31;30;
47741;PMS5003;33504;52.066;6.096;2023-03-01T08:48:40;28;27;
47741;PMS5003;33504;52.066;6.096;2023-03-01T08:51:08;31;28;
47741;PMS5003;33504;52.066;6.096;2023-03-01T08:53:37;28;28;
47741;PMS5003;33504;52.066;6.096;2023-03-01T08:56:04;29;29;
47741;PMS5003;33504;52.066;6.096;2023-03-01T08:58:32;33;31;
47741;PMS5003;33504;52.066;6.096;2023-03-01T09:01:00;27;27;
47741;PMS5003;33504;52.066;6.096;2023-03-01T09:03:32;26;26;
47741;PMS5003;33504;52.066;6.096;2023-03-01T09:06:00;24;24;
47741;PMS5003;33504;52.066;6.096;2023-03-01T09:08:29;27;26;
47741;PMS5003;33504;52.066;6.096;2023-03-01T09:10:56;27;27;
47741;PMS5003;33504;52.066;6.096;2023-03-01T09:13:23;24;24;
47741;PMS5003;33504;52.066;6.096;2023-03-01T09:15:51;28;27;
47741;PMS5003;33504;52.066;6.096;2023-03-01T09:18:18;26;26;
47741;PMS5003;33504;52.066;6.096;2023-03-01T09:20:45;27;25;
47741;PMS5003;33504;52.066;6.096;2023-03-01T09:23:13;41;40;
47741;PMS5003;33504;52.066;6.096;2023-03-01T09:25:40;40;36;
47741;PMS5003;33504;52.066;6.096;2023-03-01T09:28:07;33;32;
47741;PMS5003;33504;52.066;6.096;2023-03-01T09:30:34;31;30;
47741;PMS5003;33504;52.066;6.096;2023-03-01T09:33:01;26;25;
47741;PMS5003;33504;52.066;6.096;2023-03-01T09:35:28;21;20;
47741;PMS5003;33504;52.066;6.096;2023-03-01T09:37:55;19;19;
47741;PMS5003;33504;52.066;6.096;2023-03-01T09:40:24;15;15;
47741;PMS5003;33504;52.066;6.096;2023-03-01T09:42:55;20;18;
47741;PMS5003;33504;52.066;6.096;2023-03-01T09:45:33;32;30;
47741;PMS5003;33504;52.066;6.096;2023-03-01T09:48:02;24;23;
47741;PMS5003;33504;52.066;6.096;2023-03-01T09:50:33;25;24;
47741;PMS5003;33504;52.066;6.096;2023-03-01T09:53:06;25;23;
47741;PMS5003;33504;52.066;6.096;2023-03-01T09:55:39;21;20;
47741;PMS5003;33504;52.066;6.096;2023-03-01T09:58:23;18;17;
47741;PMS5003;33504;52.066;6.096;2023-03-01T10:00:58;19;17;
47741;PMS5003;33504;52.066;6.096;2023-03-01T10:03:36;22;22;
47741;PMS5003;33504;52.066;6.096;2023-03-01T10:06:10;18;16;
47741;PMS5003;33504;52.066;6.096;2023-03-01T10:08:42;17;16;
47741;PMS5003;33504;52.066;6.096;2023-03-01T10:11:17;22;21;
47741;PMS5003;33504;52.066;6.096;2023-03-01T10:13:49;22;20;
47741;PMS5003;33504;52.066;6.096;2023-03-01T10:16:24;18;17;
47741;PMS5003;33504;52.066;6.096;2023-03-01T10:18:55;19;18;
47741;PMS5003;33504;52.066;6.096;2023-03-01T10:21:26;15;15;
47741;PMS5003;33504;52.066;6.096;2023-03-01T10:23:54;16;16;
47741;PMS5003;33504;52.066;6.096;2023-03-01T10:26:30;19;19;
47741;PMS5003;33504;52.066;6.096;2023-03-01T10:29:06;18;18;
47741;PMS5003;33504;52.066;6.096;2023-03-01T10:31:37;14;13;
47741;PMS5003;33504;52.066;6.096;2023-03-01T10:34:10;16;15;
47741;PMS5003;33504;52.066;6.096;2023-03-01T10:36:39;18;17;
47741;PMS5003;33504;52.066;6.096;2023-03-01T10:39:13;16;16;
47741;PMS5003;33504;52.066;6.096;2023-03-01T10:41:59;16;16;
47741;PMS5003;33504;52.066;6.096;2023-03-01T10:44:45;19;19;
47741;PMS5003;33504;52.066;6.096;2023-03-01T10:47:14;13;12;
47741;PMS5003;33504;52.066;6.096;2023-03-01T10:50:01;18;18;
47741;PMS5003;33504;52.066;6.096;2023-03-01T10:52:31;14;14;
47741;PMS5003;33504;52.066;6.096;2023-03-01T10:55:02;17;16;
47741;PMS5003;33504;52.066;6.096;2023-03-01T10:57:49;17;17;
47741;PMS5003;33504;52.066;6.096;2023-03-01T11:00:32;14;14;
47741;PMS5003;33504;52.066;6.096;2023-03-01T11:03:09;13;13;
47741;PMS5003;33504;52.066;6.096;2023-03-01T11:05:50;17;16;
47741;PMS5003;33504;52.066;6.096;2023-03-01T11:08:32;15;14;
47741;PMS5003;33504;52.066;6.096;2023-03-01T11:11:03;14;14;
47741;PMS5003;33504;52.066;6.096;2023-03-01T11:13:46;16;14;
47741;PMS5003;33504;52.066;6.096;2023-03-01T11:16:23;18;18;
47741;PMS5003;33504;52.066;6.096;2023-03-01T11:18:58;43;43;
47741;PMS5003;33504;52.066;6.096;2023-03-01T11:21:28;27;27;
47741;PMS5003;33504;52.066;6.096;2023-03-01T11:23:58;28;26;
47741;PMS5003;33504;52.066;6.096;2023-03-01T11:26:28;16;15;
47741;PMS5003;33504;52.066;6.096;2023-03-01T11:29:01;28;25;
47741;PMS5003;33504;52.066;6.096;2023-03-01T11:31:33;47;47;
47741;PMS5003;33504;52.066;6.096;2023-03-01T11:34:04;18;17;
47741;PMS5003;33504;52.066;6.096;2023-03-01T11:36:35;37;36;
47741;PMS5003;33504;52.066;6.096;2023-03-01T11:39:11;29;26;
47741;PMS5003;33504;52.066;6.096;2023-03-01T11:41:45;17;17;
47741;PMS5003;33504;52.066;6.096;2023-03-01T11:44:18;18;18;
47741;PMS5003;33504;52.066;6.096;2023-03-01T11:46:52;14;14;
47741;PMS5003;33504;52.066;6.096;2023-03-01T11:49:40;18;15;
47741;PMS5003;33504;52.066;6.096;2023-03-01T11:52:24;15;14;
47741;PMS5003;33504;52.066;6.096;2023-03-01T11:55:03;14;14;
47741;PMS5003;33504;52.066;6.096;2023-03-01T11:57:50;16;15;
47741;PMS5003;33504;52.066;6.096;2023-03-01T12:00:37;19;19;
47741;PMS5003;33504;52.066;6.096;2023-03-01T12:03:21;16;16;
47741;PMS5003;33504;52.066;6.096;2023-03-01T12:05:58;14;14;
47741;PMS5003;33504;52.066;6.096;2023-03-01T12:08:37;15;14;
47741;PMS5003;33504;52.066;6.096;2023-03-01T12:11:11;12;11;
47741;PMS5003;33504;52.066;6.096;2023-03-01T12:13:51;13;12;
47741;PMS5003;33504;52.066;6.096;2023-03-01T12:16:36;15;14;
47741;PMS5003;33504;52.066;6.096;2023-03-01T12:19:38;14;14;
47741;PMS5003;33504;52.066;6.096;2023-03-01T12:22:22;15;15;
47741;PMS5003;33504;52.066;6.096;2023-03-01T12:25:03;16;14;
47741;PMS5003;33504;52.066;6.096;2023-03-01T12:27:50;15;15;
47741;PMS5003;33504;52.066;6.096;2023-03-01T12:30:33;20;20;
47741;PMS5003;33504;52.066;6.096;2023-03-01T12:33:13;16;16;
47741;PMS5003;33504;52.066;6.096;2023-03-01T12:36:40;17;16;
47741;PMS5003;33504;52.066;6.096;2023-03-01T12:39:24;15;15;
47741;PMS5003;33504;52.066;6.096;2023-03-01T12:42:03;16;15;
47741;PMS5003;33504;52.066;6.096;2023-03-01T12:44:47;14;14;
47741;PMS5003;33504;52.066;6.096;2023-03-01T12:47:29;17;14;
47741;PMS5003;33504;52.066;6.096;2023-03-01T12:50:11;16;15;
47741;PMS5003;33504;52.066;6.096;2023-03-01T12:52:46;16;14;
47741;PMS5003;33504;52.066;6.096;2023-03-01T12:55:20;15;13;
47741;PMS5003;33504;52.066;6.096;2023-03-01T12:57:57;17;16;
47741;PMS5003;33504;52.066;6.096;2023-03-01T13:00:30;16;15;
47741;PMS5003;33504;52.066;6.096;2023-03-01T13:03:09;18;17;
47741;PMS5003;33504;52.066;6.096;2023-03-01T13:05:47;20;20;
47741;PMS5003;33504;52.066;6.096;2023-03-01T13:08:31;17;17;
47741;PMS5003;33504;52.066;6.096;2023-03-01T13:11:06;14;14;
47741;PMS5003;33504;52.066;6.096;2023-03-01T13:13:42;20;19;
47741;PMS5003;33504;52.066;6.096;2023-03-01T13:16:41;23;21;
47741;PMS5003;33504;52.066;6.096;2023-03-01T13:19:12;22;22;
47741;PMS5003;33504;52.066;6.096;2023-03-01T13:21:41;15;15;
47741;PMS5003;33504;52.066;6.096;2023-03-01T13:24:28;15;15;
47741;PMS5003;33504;52.066;6.096;2023-03-01T13:27:32;15;15;
47741;PMS5003;33504;52.066;6.096;2023-03-01T13:29:59;14;14;
47741;PMS5003;33504;52.066;6.096;2023-03-01T13:32:27;15;14;
47741;PMS5003;33504;52.066;6.096;2023-03-01T13:34:56;13;13;
47741;PMS5003;33504;52.066;6.096;2023-03-01T13:37:26;13;13;
47741;PMS5003;33504;52.066;6.096;2023-03-01T13:39:59;16;14;
47741;PMS5003;33504;52.066;6.096;2023-03-01T13:42:32;15;13;
47741;PMS5003;33504;52.066;6.096;2023-03-01T13:45:02;17;15;
47741;PMS5003;33504;52.066;6.096;2023-03-01T13:47:32;19;19;
47741;PMS5003;33504;52.066;6.096;2023-03-01T13:50:03;14;14;
47741;PMS5003;33504;52.066;6.096;2023-03-01T13:52:35;16;16;
47741;PMS5003;33504;52.066;6.096;2023-03-01T13:55:16;18;16;
47741;PMS5003;33504;52.066;6.096;2023-03-01T13:57:46;16;16;
47741;PMS5003;33504;52.066;6.096;2023-03-01T14:00:33;18;18;
47741;PMS5003;33504;52.066;6.096;2023-03-01T14:03:02;14;14;
47741;PMS5003;33504;52.066;6.096;2023-03-01T14:05:31;16;15;
47741;PMS5003;33504;52.066;6.096;2023-03-01T14:07:58;16;14;
47741;PMS5003;33504;52.066;6.096;2023-03-01T14:10:26;14;14;
47741;PMS5003;33504;52.066;6.096;2023-03-01T14:13:00;19;19;
47741;PMS5003;33504;52.066;6.096;2023-03-01T14:15:35;15;15;
47741;PMS5003;33504;52.066;6.096;2023-03-01T14:18:07;19;18;
47741;PMS5003;33504;52.066;6.096;2023-03-01T14:20:41;15;13;
47741;PMS5003;33504;52.066;6.096;2023-03-01T14:23:10;12;11;
47741;PMS5003;33504;52.066;6.096;2023-03-01T14:25:39;13;12;
47741;PMS5003;33504;52.066;6.096;2023-03-01T14:28:15;13;13;
47741;PMS5003;33504;52.066;6.096;2023-03-01T14:30:45;13;13;
47741;PMS5003;33504;52.066;6.096;2023-03-01T14:33:21;11;11;
47741;PMS5003;33504;52.066;6.096;2023-03-01T14:35:54;14;14;
47741;PMS5003;33504;52.066;6.096;2023-03-01T14:38:23;15;15;
47741;PMS5003;33504;52.066;6.096;2023-03-01T14:40:56;12;12;
47741;PMS5003;33504;52.066;6.096;2023-03-01T14:43:26;15;14;
47741;PMS5003;33504;52.066;6.096;2023-03-01T14:45:56;16;14;
47741;PMS5003;33504;52.066;6.096;2023-03-01T14:48:23;13;12;
47741;PMS5003;33504;52.066;6.096;2023-03-01T14:50:53;13;13;
47741;PMS5003;33504;52.066;6.096;2023-03-01T14:53:21;14;13;
47741;PMS5003;33504;52.066;6.096;2023-03-01T14:55:52;12;12;
47741;PMS5003;33504;52.066;6.096;2023-03-01T14:58:22;12;10;
47741;PMS5003;33504;52.066;6.096;2023-03-01T15:00:51;12;11;
47741;PMS5003;33504;52.066;6.096;2023-03-01T15:03:26;12;12;
47741;PMS5003;33504;52.066;6.096;2023-03-01T15:06:01;13;11;
47741;PMS5003;33504;52.066;6.096;2023-03-01T15:08:30;11;11;
47741;PMS5003;33504;52.066;6.096;2023-03-01T15:10:59;15;13;
47741;PMS5003;33504;52.066;6.096;2023-03-01T15:13:30;12;12;
47741;PMS5003;33504;52.066;6.096;2023-03-01T15:16:06;11;11;
47741;PMS5003;33504;52.066;6.096;2023-03-01T15:18:36;13;12;
47741;PMS5003;33504;52.066;6.096;2023-03-01T15:21:06;13;13;
47741;PMS5003;33504;52.066;6.096;2023-03-01T15:23:35;11;11;
47741;PMS5003;33504;52.066;6.096;2023-03-01T15:26:04;10;9;
47741;PMS5003;33504;52.066;6.096;2023-03-01T15:28:32;10;9;
47741;PMS5003;33504;52.066;6.096;2023-03-01T15:31:01;9;9;
47741;PMS5003;33504;52.066;6.096;2023-03-01T15:33:32;13;12;
47741;PMS5003;33504;52.066;6.096;2023-03-01T15:36:41;10;10;
47741;PMS5003;33504;52.066;6.096;2023-03-01T15:39:25;14;14;
47741;PMS5003;33504;52.066;6.096;2023-03-01T15:41:58;10;10;
47741;PMS5003;33504;52.066;6.096;2023-03-01T15:44:26;11;10;
47741;PMS5003;33504;52.066;6.096;2023-03-01T15:46:55;9;8;
47741;PMS5003;33504;52.066;6.096;2023-03-01T15:49:34;9;9;
47741;PMS5003;33504;52.066;6.096;2023-03-01T15:52:04;10;10;
47741;PMS5003;33504;52.066;6.096;2023-03-01T15:54:38;31;29;
47741;PMS5003;33504;52.066;6.096;2023-03-01T15:57:10;14;14;
47741;PMS5003;33504;52.066;6.096;2023-03-01T15:59:39;10;10;
47741;PMS5003;33504;52.066;6.096;2023-03-01T16:02:08;35;33;
47741;PMS5003;33504;52.066;6.096;2023-03-01T16:04:36;24;22;
47741;PMS5003;33504;52.066;6.096;2023-03-01T16:07:03;15;14;
47741;PMS5003;33504;52.066;6.096;2023-03-01T16:09:30;20;19;
47741;PMS5003;33504;52.066;6.096;2023-03-01T16:11:57;16;15;
47741;PMS5003;33504;52.066;6.096;2023-03-01T16:14:25;17;16;
47741;PMS5003;33504;52.066;6.096;2023-03-01T16:16:52;16;15;
47741;PMS5003;33504;52.066;6.096;2023-03-01T16:19:20;13;13;
47741;PMS5003;33504;52.066;6.096;2023-03-01T16:21:47;15;15;
47741;PMS5003;33504;52.066;6.096;2023-03-01T16:24:14;13;13;
47741;PMS5003;33504;52.066;6.096;2023-03-01T16:26:42;14;12;
47741;PMS5003;33504;52.066;6.096;2023-03-01T16:29:09;15;13;
47741;PMS5003;33504;52.066;6.096;2023-03-01T16:31:36;12;12;
47741;PMS5003;33504;52.066;6.096;2023-03-01T16:34:03;12;12;
47741;PMS5003;33504;52.066;6.096;2023-03-01T16:36:31;14;14;
47741;PMS5003;33504;52.066;6.096;2023-03-01T16:38:58;13;12;
47741;PMS5003;33504;52.066;6.096;2023-03-01T16:41:26;13;12;